Rachel, Nevada Weather observations

Data are for observation ending at time listed.
 Day   Time    Ave.   Ave.  Ave.  Vector   Max.   Stn.    Total    Solar   Ave.  
  of    of     Air    Rel.  Wind   Wind    Wind   Baro.  Precip.   Rad.    Soil  
Year   Day     Temp.  Hum.  Speed  Dir.    Gust   Pres.                    Temp. 
2015   (PST)    F      %     mph   deg.    mph     mb.     in.     W/m2     F   
------------------------------------------------------------------------------
  27    4:00   43.9    82    3.8    82      8.6   853.5    0.00       0    44.0
  27    4:10   43.6    84    2.8   255      5.6   853.8    0.00       0    44.0
  27    4:20   43.6    85    2.5   132      5.6   853.7    0.00       0    43.9
  27    4:30   44.1    82    7.6   168     13.4   853.7    0.00       0    43.8
  27    4:40   44.3    81   11.2   170     14.6   853.7    0.00       0    43.8
  27    4:50   44.3    80   13.9   168     17.3   853.7    0.00       0    43.8
  27    5:00   44.0    82   12.2   179     14.5   853.8    0.00       0    43.8
  27    5:10   43.8    83   11.9   179     14.4   853.8    0.00       0    43.8
  27    5:20   43.5    85   10.1   172     13.1   853.9    0.00       0    43.7
  27    5:30   43.5    85    9.9   163     11.7   854.0    0.00       0    43.6
  27    5:40   43.3    86   10.1   161     12.7   854.0    0.00       0    43.6
  27    5:50   42.9    87    8.4   165     10.7   854.0    0.00       0    43.5
  27    6:00   42.8    88    8.0   158     10.3   854.0    0.00       0    43.4
  27    6:10   42.7    89    7.3   158     10.0   854.1    0.00       0    43.4
  27    6:20   42.7    89    6.3   158      8.1   854.1    0.00       0    43.4
  27    6:30   42.7    89    9.2   158     13.8   854.2    0.00       0    43.4
  27    6:40   42.9    89   10.1   155     12.6   854.2    0.00       0    43.4
  27    6:50   42.9    89    8.7   158     11.5   854.3    0.00       0    43.3
  27    7:00   42.7    90    6.9   172      8.9   854.4    0.00       2    43.3
  27    7:10   42.9    90    6.2   178     10.0   854.6    0.00       3    43.3
  27    7:20   43.2    90    7.3   168      9.3   854.7    0.00       3    43.3
  27    7:30   43.4    90    6.7   171     10.4   854.8    0.00       6    43.4
  27    7:40   43.6    89    7.0   174      9.8   854.9    0.00      11    43.4
  27    7:50   43.7    90    8.9   167     11.2   855.1    0.00      10    43.4
  27    8:00   43.7    90    7.2   164      9.4   855.2    0.00      22    43.4
  27    8:10   44.0    90    8.7   157     11.2   855.2    0.00      47    43.5
  27    8:20   44.5    89   11.4   163     17.1   855.1    0.00      97    43.6
  27    8:30   44.8    88   11.8   177     15.0   855.3    0.01      28    43.8
  27    8:40   44.6    88    9.2   206     12.0   855.5    0.02      16    43.8
  27    8:50   44.1    90    8.2   198     11.5   855.5    0.03      14    43.7
  27    9:00   43.9    92    3.2   252      7.0   855.5    0.01      64    43.7
  27    9:10   45.6    92    0.2   261      2.2   855.5    0.00     295    43.9
  27    9:20   47.6    85    5.8   164     13.8   855.6    0.00     343    44.5
  27    9:30   47.4    83   11.8   185     15.4   855.7    0.00     414    45.0
  27    9:40   47.4    83   12.1   179     17.4   855.9    0.00     499    45.5
  27    9:50   48.1    82   15.9   170     20.0   855.9    0.00     508    46.0
  27   10:00   47.9    82   17.1   165     21.3   856.0    0.00     468    46.4
  27   10:10   47.8    81   16.6   171     20.2   856.1    0.00     279    46.5
  27   10:20   47.5    82   14.7   164     18.9   856.3    0.00     285    46.5
  27   10:30   48.3    79   14.9   169     19.0   856.3    0.00     439    46.7
  27   10:40   48.5    80   13.8   166     17.5   856.3    0.00     354    47.1
  27   10:50   48.0    80   14.4   173     18.9   856.2    0.00     210    47.2
  27   11:00   47.9    79   14.7   174     20.1   856.1    0.00     126    47.1
  27   11:10   47.5    81   14.3   171     18.8   856.0    0.00     122    47.0
  27   11:20   47.6    82   13.9   163     18.3   855.9    0.00     140    46.9
  27   11:30   47.7    81   17.5   157     22.1   855.7    0.00     201    46.9
  27   11:40   47.1    83   16.3   160     21.5   855.6    0.01     100    46.8
  27   11:50   47.1    85   11.5   171     17.2   855.5    0.02     179    46.7
  27   12:00   47.6    84   12.9   170     18.7   855.2    0.00     114    46.8
  27   12:10   47.4    85   15.1   173     18.5   855.1    0.00     147    46.8
  27   12:20   47.0    85   12.8   178     17.2   855.1    0.00     126    46.8
  27   12:30   47.1    84   13.5   167     18.3   854.9    0.00     303    46.8
  27   12:40   47.6    81    4.5   167      9.9   854.8    0.00     104    46.9
  27   12:50   48.1    76    7.1   192     15.4   854.6    0.00      88    46.9
  27   13:00   49.2    66   10.6   202     17.1   854.6    0.00      99    46.8
  27   13:10   49.0    69   11.6   181     17.9   854.6    0.00      75    46.8
  27   13:20   48.4    74   10.0   178     13.2   854.6    0.00      58    46.8
  27   13:30   48.3    76    8.5   203     12.3   854.6    0.01      65    46.7
  27   13:40   47.8    77    9.2   241     18.9   854.6    0.00      43    46.6
  27   13:50   46.2    80   15.0   235     26.6   854.7    0.01      23    46.5
  27   14:00   44.0    82   15.8   215     22.7   854.7    0.03      43    46.1
  27   14:10   44.0    85   10.8   201     16.4   854.4    0.01     112    45.8
  27   14:20   45.5    81   10.4   197     13.7   854.2    0.00      78    45.8
  27   14:30   46.5    78   14.5   216     21.7   854.2    0.00      79    45.8
  27   14:40   46.9    78   12.1   202     15.3   854.1    0.00     162    45.9
  27   14:50   48.8    75   12.4   202     16.2   854.1    0.00     357    46.1
  27   15:00   48.9    72   10.9   215     15.5   854.3    0.00      85    46.3
  27   15:10   48.9    70   10.1   213     13.4   854.5    0.00     127    46.3
  27   15:20   49.6    67   12.4   217     18.5   854.5    0.00     135    46.4
  27   15:30   49.0    70   10.2   217     15.8   854.5    0.00      69    46.4
  27   15:40   48.8    69   13.6   221     20.8   854.5    0.00      81    46.3
  27   15:50   48.7    70   13.0   223     21.3   854.6    0.00     143    46.3
  27   16:00   49.3    69   14.2   203     19.8   854.7    0.00     194    46.4
  27   16:10   49.3    69   11.9   188     16.7   854.7    0.00     130    46.5
  27   16:20   49.6    68    8.5   212     14.2   854.8    0.00     112    46.5
  27   16:30   49.4    66    9.7   224     14.8   854.9    0.00      40    46.5
  27   16:40   48.7    69    7.1   237      9.4   855.0    0.00      23    46.4
  27   16:50   48.2    71    7.7   250     10.0   855.0    0.00      10    46.3
  27   17:00   48.1    71    6.2   244     10.0   855.0    0.00       6    46.2
  27   17:10   48.0    69    7.1   226     10.5   855.1    0.00       3    46.1
  27   17:20   47.9    71    8.8   252     12.8   855.1    0.00       1    46.0
  27   17:30   47.2    76    6.9   260      9.7   855.1    0.00       0    45.9
  27   17:40   46.7    78    5.0   235      7.6   855.1    0.00       0    45.8
  27   17:50   46.2    77    6.6   223      9.8   855.0    0.00       0    45.7
  27   18:00   45.8    75    6.9   215      9.9   854.9    0.00       0    45.5
  27   18:10   45.0    76    6.3   201      8.8   854.9    0.00       0    45.3
  27   18:20   44.5    77    3.4   210      5.0   854.9    0.00       0    45.1
  27   18:30   44.8    76    6.3   220     10.1   854.9    0.00       0    45.0
  27   18:40   45.2    75    6.2   207      9.9   855.1    0.00       0    45.0
  27   18:50   45.1    76    2.8   205      5.8   855.2    0.00       0    44.9
  27   19:00   44.1    81    4.6   113      6.6   855.2    0.00       0    44.8
  27   19:10   44.7    79    4.7   141      8.5   855.2    0.00       0    44.7
  27   19:20   44.9    78    5.5   171      9.1   855.2    0.00       0    44.6
  27   19:30   44.3    80    3.3   183      4.6   855.2    0.00       0    44.6
  27   19:40   43.9    79    4.2   191      6.3   855.2    0.00       0    44.4
  27   19:50   43.9    79    3.8   187      5.8   855.2    0.00       0    44.3
  27   20:00   43.2    81    4.4   227      8.0   855.2    0.00       0    44.2
  27   20:10   42.1    84    7.5   343     10.6   855.2    0.00       0    44.1
  27   20:20   42.2    83    5.3   341      6.6   855.2    0.00       0    43.9
  27   20:30   41.2    86    6.5   359      9.5   855.4    0.00       0    43.8
  27   20:40   40.9    88    7.3   312      9.6   855.4    0.00       0    43.6
  27   20:50   40.2    90    4.8   298      9.3   855.4    0.00       0    43.5
  27   21:00   39.8    90    3.1   267      5.0   855.5    0.00       0    43.4
  27   21:10   39.3    91    4.6   184      7.7   855.6    0.00       0    43.3
  27   21:20   39.5    92    5.2   155      7.2   855.5    0.00       0    43.1
  27   21:30   39.5    90    6.6   132      8.8   855.4    0.00       0    42.9
  27   21:40   38.8    90    4.1    87      6.3   855.4    0.00       0    42.8
  27   21:50   37.1    92    7.3    33      8.6   855.6    0.00       0    42.5
  27   22:00   36.8    93    7.8    40      9.7   855.7    0.00       0    42.2
  27   22:10   36.7    94    6.8    70      9.3   855.8    0.00       0    42.0
  27   22:20   37.3    93    3.7    32      5.4   855.8    0.00       0    41.9
  27   22:30   37.0    93    3.4    40      5.0   855.8    0.00       0    41.8
  27   22:40   36.6    93    0.7    56      2.1   855.7    0.00       0    41.7
  27   22:50   36.6    93    1.3   231      5.0   855.6    0.00       0    41.6
  27   23:00   36.5    94    0.1   220      1.1   855.6    0.00       0    41.6
  27   23:10   35.5    93    0.5   216      1.4   855.6    0.00       0    41.4
  27   23:20   33.7    94    0.9   143      4.5   855.6    0.00       0    41.2
  27   23:30   33.9    95    4.0   156      5.2   855.5    0.00       0    40.9
  27   23:40   34.4    95    6.7   152      8.6   855.4    0.00       0    40.8
  27   23:50   34.6    94    8.6   163      9.9   855.3    0.00       0    40.6
  28    0:00   34.7    94    8.1   164      9.9   855.3    0.00       0    40.4
  28    0:10   34.7    94    5.6   129      7.5   855.3    0.00       0    40.3
  28    0:20   34.7    94    4.0   130      6.6   855.2    0.00       0    40.2
  28    0:30   34.7    93    7.1   140      9.3   855.0    0.00       0    40.1
  28    0:40   35.2    93    6.1   128      8.5   854.9    0.00       0    39.9
  28    0:50   34.8    92    1.8   135      5.6   854.9    0.00       0    39.9
  28    1:00   34.3    93    3.0   132      4.1   854.8    0.00       0    39.8
  28    1:10   32.5    93    1.9   176      4.7   854.7    0.00       0    39.7
  28    1:20   31.4    95    2.0   196      5.0   854.6    0.00       0    39.5
  28    1:30   31.5    95    2.0    97      4.2   854.5    0.00       0    39.3
  28    1:40   31.8    96    0.9    78      2.0   854.5    0.00       0    39.2
  28    1:50   31.7    96    3.4   207      5.4   854.3    0.00       0    39.1
  28    2:00   31.3    96    4.6   219      6.1   854.3    0.00       0    39.0
  28    2:10   30.8    96    2.7   270      4.2   854.5    0.00       0    38.9
  28    2:20   29.9    96    1.3   341      5.0   854.7    0.00       0    38.8
  28    2:30   29.7    97    3.2   204      4.8   854.7    0.00       0    38.6
  28    2:40   29.8    97    4.3   198      5.3   854.8    0.00       0    38.5
  28    2:50   30.0    97    5.9   167      7.7   855.0    0.00       0    38.3
  28    3:00   30.8    97    4.8   190      5.7   855.0    0.00       0    38.2
  28    3:10   31.2    97    3.7   202      5.6   855.1    0.00       0    38.2
  28    3:20   32.6    98    4.9   221      6.4   855.1    0.00       0    38.2
  28    3:30   32.3    97    3.4   189      4.6   855.3    0.00       0    38.2
  28    3:40   32.2    97    2.5   206      3.7   855.4    0.00       0    38.2
  28    3:50   32.2    98    5.2   194      6.6   855.4    0.00       0    38.1

Return to St. George, Utah graphs page.


Western Regional Climate Center,wrcc@dri.edu